Time;durP1;ratioP1;P1;durP2;ratioP2;P2;SDS_P1;SDS_P2;PMS_P1;PMS_P2;Temp;Humidity;BMP_temperature;BMP_pressure;BME280_temperature;BME280_humidity;BME280_pressure;Samples;Min_cycle;Max_cycle;Signal;HPM_P1;HPM_P2
2021/06/19 00:00:31;;;;;;;7.30;3.25;;;;;;;16.53;70.16;100704.38;4399569;32;20076;-91
2021/06/19 00:02:59;;;;;;;7.07;3.25;;;;;;;16.50;70.50;100708.19;4414454;32;20129;-93
2021/06/19 00:05:25;;;;;;;8.70;3.30;;;;;;;16.54;70.70;100714.47;4411038;32;20386;-92
2021/06/19 00:07:51;;;;;;;7.22;3.45;;;;;;;16.46;70.87;100716.09;4400246;32;20064;-92
2021/06/19 00:10:18;;;;;;;6.40;3.33;;;;;;;16.49;70.29;100711.50;4399984;32;20038;-93
2021/06/19 00:12:45;;;;;;;8.75;3.45;;;;;;;16.49;70.71;100711.50;4393324;32;20096;-91
2021/06/19 00:15:15;;;;;;;8.70;3.55;;;;;;;16.57;69.99;100715.56;4397095;32;20034;-93
2021/06/19 00:17:41;;;;;;;9.13;3.75;;;;;;;16.67;70.47;100712.22;4396241;32;20073;-93
2021/06/19 00:22:48;;;;;;;8.30;4.40;;;;;;;17.24;69.39;100715.78;4427568;31;821089;-76
2021/06/19 00:25:16;;;;;;;9.57;4.37;;;;;;;17.24;69.39;100715.78;4457649;32;20051;-75
2021/06/19 00:27:42;;;;;;;7.25;3.20;;;;;;;16.79;70.14;100716.09;4456198;32;20476;-75
2021/06/19 00:30:10;;;;;;;8.38;3.50;;;;;;;16.87;70.03;100711.59;4453056;32;20105;-76
2021/06/19 00:32:37;;;;;;;6.93;4.18;;;;;;;16.83;69.42;100711.00;4452797;32;20123;-77
2021/06/19 00:35:05;;;;;;;8.95;4.00;;;;;;;16.85;69.21;100726.34;4455053;32;20090;-77
2021/06/19 00:37:33;;;;;;;8.93;3.78;;;;;;;16.93;69.08;100718.22;4453987;32;20100;-77
2021/06/19 00:39:59;;;;;;;12.88;4.70;;;;;;;16.94;68.99;100711.28;4454491;32;20073;-76
2021/06/19 00:42:26;;;;;;;12.07;5.00;;;;;;;16.91;68.87;100712.25;4457105;32;20029;-75
2021/06/19 00:44:54;;;;;;;11.88;4.57;;;;;;;16.91;69.58;100710.16;4453015;32;20112;-76
2021/06/19 00:47:20;;;;;;;10.82;4.87;;;;;;;16.89;69.57;100706.25;4453725;32;20819;-75
2021/06/19 00:49:46;;;;;;;13.07;4.70;;;;;;;16.93;69.54;100698.31;4447195;32;20041;-76
2021/06/19 00:52:11;;;;;;;9.15;5.05;;;;;;;16.89;69.24;100698.50;4454208;32;20099;-75
2021/06/19 00:54:38;;;;;;;10.30;4.78;;;;;;;16.67;70.24;100700.84;4456221;32;20476;-76
2021/06/19 00:57:08;;;;;;;11.57;4.55;;;;;;;16.75;69.96;100710.56;4458502;32;20511;-76
2021/06/19 00:59:37;;;;;;;8.75;4.65;;;;;;;16.76;70.93;100700.00;4455583;32;20084;-76
2021/06/19 01:02:03;;;;;;;10.95;4.75;;;;;;;16.70;71.09;100708.41;4442301;32;20103;-75
2021/06/19 01:04:30;;;;;;;12.18;4.93;;;;;;;16.66;71.13;100699.25;4439880;32;20330;-76
2021/06/19 01:06:58;;;;;;;9.35;4.72;;;;;;;16.60;71.74;100704.03;4441542;32;20077;-74
2021/06/19 01:09:24;;;;;;;10.30;5.10;;;;;;;16.63;72.27;100697.38;4438263;32;20455;-76
2021/06/19 01:11:51;;;;;;;9.90;5.37;;;;;;;16.61;71.61;100697.09;4437971;32;20041;-76
2021/06/19 01:14:17;;;;;;;10.43;4.45;;;;;;;16.65;71.74;100696.91;4437139;32;20077;-74
2021/06/19 01:16:47;;;;;;;10.93;4.50;;;;;;;16.62;71.51;100695.00;4438178;32;20068;-74
2021/06/19 01:19:14;;;;;;;9.82;4.97;;;;;;;16.56;71.56;100689.22;4434775;32;20049;-75
2021/06/19 01:21:41;;;;;;;10.38;4.97;;;;;;;16.56;70.85;100694.09;4436481;32;20094;-74
2021/06/19 01:24:14;;;;;;;9.55;4.65;;;;;;;16.50;70.66;100693.22;4439726;32;20444;-75
2021/06/19 01:26:40;;;;;;;8.73;5.05;;;;;;;16.56;71.83;100694.09;4440008;32;20058;-75
2021/06/19 01:29:06;;;;;;;10.43;4.78;;;;;;;16.61;71.54;100694.25;4441474;32;20038;-77
2021/06/19 01:31:32;;;;;;;13.13;5.28;;;;;;;16.62;71.64;100698.66;4437364;32;20418;-77
2021/06/19 01:33:59;;;;;;;11.12;5.12;;;;;;;16.63;71.37;100699.44;4430800;32;20108;-76
2021/06/19 01:36:25;;;;;;;8.60;4.80;;;;;;;16.55;71.45;100689.69;4430766;32;20041;-76
2021/06/19 01:38:54;;;;;;;13.48;4.85;;;;;;;16.58;70.85;100688.72;4429324;32;20411;-76
2021/06/19 01:44:00;;;;;;;10.52;4.43;;;;;;;17.05;70.12;100695.25;4430056;31;679448;-76
2021/06/19 01:46:26;;;;;;;9.50;4.53;;;;;;;17.05;70.12;100695.25;4452435;32;20096;-76
2021/06/19 01:48:52;;;;;;;7.37;4.72;;;;;;;16.58;71.07;100691.56;4455158;32;20068;-77
2021/06/19 01:51:17;;;;;;;8.82;5.05;;;;;;;16.46;71.28;100698.25;4453595;32;20037;-76
2021/06/19 01:53:46;;;;;;;9.20;5.00;;;;;;;16.33;71.46;100686.28;4453113;32;20063;-75
2021/06/19 01:56:13;;;;;;;12.32;4.80;;;;;;;16.30;71.76;100685.22;4454275;32;20130;-75
2021/06/19 01:58:40;;;;;;;12.15;5.65;;;;;;;16.23;72.51;100684.75;4452255;32;20078;-76
2021/06/19 02:01:09;;;;;;;10.80;5.10;;;;;;;16.16;72.09;100680.19;4448580;32;20045;-77
2021/06/19 02:03:36;;;;;;;7.15;5.03;;;;;;;16.16;72.36;100688.72;4438194;32;20021;-77
2021/06/19 02:06:02;;;;;;;10.52;5.15;;;;;;;16.18;71.98;100683.34;4437906;32;20048;-77
2021/06/19 02:08:29;;;;;;;8.25;5.37;;;;;;;16.19;71.63;100693.44;4441523;32;20104;-75
2021/06/19 02:10:57;;;;;;;9.60;4.85;;;;;;;16.09;72.60;100686.22;4433667;32;20085;-75
2021/06/19 02:13:23;;;;;;;9.30;5.72;;;;;;;15.99;72.17;100693.19;4435315;32;20029;-77
2021/06/19 02:15:50;;;;;;;12.05;6.30;;;;;;;15.74;72.73;100685.81;4435184;32;20072;-77
2021/06/19 02:18:17;;;;;;;9.98;5.30;;;;;;;15.81;73.28;100676.97;4438755;32;20182;-75
2021/06/19 02:20:48;;;;;;;14.52;6.05;;;;;;;15.66;73.21;100681.75;4439062;32;20153;-76
2021/06/19 02:23:14;;;;;;;9.63;5.68;;;;;;;15.55;73.64;100675.75;4439499;32;20108;-77
2021/06/19 02:25:39;;;;;;;10.90;6.03;;;;;;;15.46;74.40;100664.41;4441301;32;20060;-76
2021/06/19 02:28:08;;;;;;;13.68;6.50;;;;;;;15.32;75.26;100659.38;4440433;32;20350;-76
2021/06/19 02:30:38;;;;;;;9.43;6.07;;;;;;;15.28;75.49;100661.56;4437711;32;20490;-76
2021/06/19 02:33:05;;;;;;;18.23;6.00;;;;;;;15.23;75.74;100661.41;4440189;32;20067;-76
2021/06/19 02:35:34;;;;;;;12.10;6.62;;;;;;;15.04;76.05;100662.66;4438942;32;20061;-77
2021/06/19 02:38:00;;;;;;;11.50;6.45;;;;;;;15.00;76.22;100657.13;4439380;32;20029;-77
2021/06/19 02:40:26;;;;;;;12.25;6.70;;;;;;;14.93;76.14;100648.94;4434940;32;20076;-76
2021/06/19 02:42:52;;;;;;;12.93;6.50;;;;;;;14.92;76.62;100650.22;4434951;32;20112;-76
2021/06/19 02:45:19;;;;;;;11.82;6.47;;;;;;;14.87;76.65;100647.19;4437299;32;20433;-75
2021/06/19 02:47:47;;;;;;;9.65;5.95;;;;;;;14.83;77.37;100638.06;4440871;32;20073;-75
2021/06/19 02:50:16;;;;;;;12.75;6.45;;;;;;;14.81;77.45;100640.56;4436651;32;20061;-78
2021/06/19 02:52:43;;;;;;;10.65;6.03;;;;;;;14.70;77.44;100643.09;4433318;32;20049;-76
2021/06/19 02:55:12;;;;;;;11.50;5.95;;;;;;;14.73;77.32;100639.31;4427919;32;20080;-75
2021/06/19 02:57:39;;;;;;;11.27;7.03;;;;;;;14.78;77.43;100641.50;4428742;32;20041;-76
2021/06/19 03:00:07;;;;;;;11.43;6.65;;;;;;;14.66;77.67;100651.72;4429652;32;20073;-75
2021/06/19 03:02:33;;;;;;;10.65;6.22;;;;;;;14.75;77.58;100653.78;4427526;32;20102;-75
2021/06/19 03:04:59;;;;;;;16.10;6.53;;;;;;;14.65;77.59;100658.66;4428144;32;20428;-77
2021/06/19 03:07:25;;;;;;;10.27;6.90;;;;;;;14.65;77.59;100655.81;4425557;32;20060;-75
2021/06/19 03:09:51;;;;;;;14.13;6.82;;;;;;;14.68;77.58;100646.41;4426488;32;20156;-75
2021/06/19 03:12:16;;;;;;;11.70;6.37;;;;;;;14.67;77.73;100647.63;4427793;32;20721;-75
2021/06/19 03:14:42;;;;;;;17.20;7.72;;;;;;;14.65;77.81;100657.87;4428538;32;20136;-74
2021/06/19 03:17:08;;;;;;;10.60;6.82;;;;;;;14.62;78.04;100653.13;4425683;32;20375;-76
2021/06/19 03:19:33;;;;;;;13.35;6.90;;;;;;;14.66;77.88;100657.41;4427533;32;20106;-75
2021/06/19 03:22:00;;;;;;;11.68;6.62;;;;;;;14.72;77.81;100660.37;4423075;32;20426;-77
2021/06/19 03:24:27;;;;;;;16.75;7.20;;;;;;;14.86;77.24;100665.47;4428397;32;20076;-75
2021/06/19 03:26:54;;;;;;;12.20;7.47;;;;;;;14.98;77.12;100658.88;4430091;32;20096;-76
2021/06/19 03:29:20;;;;;;;13.32;7.18;;;;;;;15.07;76.83;100661.72;4429277;32;20102;-76
2021/06/19 03:31:47;;;;;;;11.57;6.35;;;;;;;15.15;76.44;100666.59;4428473;32;20605;-77
2021/06/19 03:34:13;;;;;;;11.38;6.12;;;;;;;15.27;76.32;100679.84;4425052;32;20116;-74
2021/06/19 03:36:39;;;;;;;11.77;6.57;;;;;;;15.31;75.59;100686.12;4430148;32;20128;-75
2021/06/19 03:39:06;;;;;;;11.85;6.50;;;;;;;15.42;75.71;100697.84;4425465;32;20098;-76
2021/06/19 03:41:32;;;;;;;14.30;6.85;;;;;;;15.52;74.40;100699.41;4427105;32;20049;-75
2021/06/19 03:43:57;;;;;;;11.52;6.35;;;;;;;15.67;74.13;100699.53;4423794;32;20090;-74
2021/06/19 03:46:23;;;;;;;13.52;6.00;;;;;;;15.75;74.11;100700.81;4429879;32;20080;-76
2021/06/19 03:48:49;;;;;;;11.55;6.22;;;;;;;15.84;74.18;100704.41;4428428;32;20397;-75
2021/06/19 03:51:15;;;;;;;13.60;6.70;;;;;;;15.85;73.08;100705.19;4425049;32;20041;-76
2021/06/19 03:53:41;;;;;;;13.57;6.72;;;;;;;15.79;72.56;100702.22;4428521;32;20102;-75
2021/06/19 03:56:07;;;;;;;11.48;6.65;;;;;;;15.98;72.15;100709.44;4424630;32;20837;-76
2021/06/19 03:58:32;;;;;;;11.68;6.03;;;;;;;15.97;72.52;100715.56;4420527;32;20081;-76
2021/06/19 04:00:58;;;;;;;9.77;6.22;;;;;;;16.01;72.14;100721.09;4424806;32;20511;-76
2021/06/19 04:03:23;;;;;;;11.73;6.05;;;;;;;16.03;71.61;100733.53;4428496;32;20092;-76
2021/06/19 04:05:49;;;;;;;11.73;5.45;;;;;;;16.04;70.97;100735.09;4426677;32;20108;-75
2021/06/19 04:08:15;;;;;;;10.55;6.07;;;;;;;16.03;71.07;100727.88;4429264;32;20033;-76
2021/06/19 04:10:40;;;;;;;10.60;6.37;;;;;;;16.04;71.02;100740.78;4423868;32;20081;-76
2021/06/19 04:13:06;;;;;;;11.68;5.90;;;;;;;16.08;71.10;100744.28;4424442;32;20132;-76
2021/06/19 04:15:32;;;;;;;16.27;6.57;;;;;;;16.14;70.80;100739.50;4429478;32;20025;-75
2021/06/19 04:17:57;;;;;;;10.52;5.50;;;;;;;16.04;70.90;100749.31;4420012;32;20086;-75
2021/06/19 04:20:23;;;;;;;11.35;5.95;;;;;;;16.02;70.07;100751.84;4426904;32;20098;-76
2021/06/19 04:22:49;;;;;;;12.52;6.32;;;;;;;16.01;70.23;100755.94;4427978;32;20038;-76
2021/06/19 04:25:17;;;;;;;10.27;5.25;;;;;;;16.02;70.70;100758.28;4430702;32;20037;-76
2021/06/19 04:27:46;;;;;;;8.93;5.75;;;;;;;16.15;70.06;100771.53;4427843;32;20089;-75
2021/06/19 04:30:13;;;;;;;14.77;6.10;;;;;;;16.21;69.72;100770.41;4423223;32;20201;-77
2021/06/19 04:32:40;;;;;;;9.88;5.60;;;;;;;16.18;68.56;100768.53;4423540;32;20056;-76
2021/06/19 04:35:06;;;;;;;9.40;5.62;;;;;;;16.06;69.00;100760.97;4427960;32;20424;-75
2021/06/19 04:37:32;;;;;;;9.10;5.60;;;;;;;16.09;69.04;100767.75;4429929;32;20125;-75
2021/06/19 04:40:06;;;;;;;10.23;5.35;;;;;;;16.04;68.89;100769.19;4418377;32;20401;-75
2021/06/19 04:42:43;;;;;;;11.83;5.17;;;;;;;16.07;68.85;100771.06;4424932;32;20072;-75
2021/06/19 04:45:11;;;;;;;7.30;5.28;;;;;;;16.09;68.89;100764.91;4423955;32;20056;-77
2021/06/19 04:47:39;;;;;;;10.38;5.43;;;;;;;16.13;68.28;100766.31;4423260;32;20037;-77
2021/06/19 04:50:06;;;;;;;8.95;5.00;;;;;;;16.22;68.64;100752.09;4425217;32;20072;-76
2021/06/19 04:52:34;;;;;;;8.60;5.57;;;;;;;16.22;67.95;100740.75;4426503;32;20107;-76
2021/06/19 04:55:02;;;;;;;10.07;5.15;;;;;;;16.24;67.92;100740.28;4427285;32;20089;-74
2021/06/19 04:57:28;;;;;;;9.10;5.30;;;;;;;16.18;67.63;100745.03;4426919;32;20063;-76
2021/06/19 04:59:56;;;;;;;9.13;5.12;;;;;;;24.63;43.49;100770.44;4425253;32;20054;-77
2021/06/19 05:02:22;;;;;;;9.57;5.40;;;;;;;23.56;45.59;100766.34;4427324;32;20128;-76
2021/06/19 05:04:47;;;;;;;8.30;5.53;;;;;;;23.26;45.69;100755.47;4425979;32;20034;-75
2021/06/19 05:07:13;;;;;;;8.00;4.78;;;;;;;23.08;45.77;100763.84;4428617;32;20506;-75
2021/06/19 05:09:40;;;;;;;9.93;5.50;;;;;;;23.05;45.70;100753.41;4427238;32;20064;-76
2021/06/19 05:12:07;;;;;;;7.28;4.60;;;;;;;23.01;45.92;100741.44;4421247;32;20122;-75
2021/06/19 05:14:33;;;;;;;7.00;5.10;;;;;;;22.99;46.30;100741.16;4425682;32;20151;-76
2021/06/19 05:16:59;;;;;;;8.20;4.80;;;;;;;22.97;46.41;100723.66;4427228;32;20077;-76
2021/06/19 05:19:24;;;;;;;9.45;5.00;;;;;;;22.98;46.49;100726.00;4421893;32;20461;-76
2021/06/19 05:21:50;;;;;;;6.20;4.37;;;;;;;23.03;46.00;100715.81;4425573;32;20070;-76
2021/06/19 05:24:16;;;;;;;8.95;5.37;;;;;;;22.84;46.29;100711.97;4427869;32;20070;-75
2021/06/19 05:26:42;;;;;;;8.85;5.00;;;;;;;22.96;46.06;100711.44;4425933;32;20064;-76
2021/06/19 05:29:08;;;;;;;9.80;4.78;;;;;;;23.08;45.63;100723.66;4424859;32;20412;-76
2021/06/19 05:31:33;;;;;;;8.77;5.25;;;;;;;23.25;45.42;100728.06;4426223;32;20397;-77
2021/06/19 05:33:59;;;;;;;7.43;4.87;;;;;;;23.27;45.16;100725.47;4427660;32;20406;-76
2021/06/19 05:36:25;;;;;;;7.18;4.78;;;;;;;23.28;44.77;100723.34;4422396;32;20059;-77
2021/06/19 05:38:51;;;;;;;7.30;4.75;;;;;;;23.50;44.77;100726.13;4425166;32;20179;-76
2021/06/19 05:41:17;;;;;;;10.63;4.75;;;;;;;23.56;44.48;100721.16;4424832;32;20094;-75
2021/06/19 05:43:43;;;;;;;8.48;4.25;;;;;;;23.54;44.08;100715.94;4424883;32;20409;-76
2021/06/19 05:46:09;;;;;;;6.40;3.90;;;;;;;23.79;43.67;100728.37;4428212;32;20124;-76
2021/06/19 05:48:35;;;;;;;7.80;4.55;;;;;;;23.82;43.67;100729.41;4425592;32;20093;-76
2021/06/19 05:51:00;;;;;;;7.43;4.57;;;;;;;23.96;43.30;100731.94;4421340;32;20081;-74
2021/06/19 05:53:27;;;;;;;11.38;5.10;;;;;;;24.08;43.25;100724.81;4428202;32;20029;-75
2021/06/19 05:55:54;;;;;;;13.68;4.85;;;;;;;24.24;43.07;100726.03;4427737;32;20448;-76
2021/06/19 05:58:20;;;;;;;7.82;3.90;;;;;;;24.43;42.61;100726.94;4424019;32;20127;-76
2021/06/19 06:00:45;;;;;;;8.13;4.45;;;;;;;24.41;42.76;100724.59;4422290;32;20474;-77
2021/06/19 06:03:11;;;;;;;11.15;4.47;;;;;;;24.59;41.90;100726.00;4426244;32;20536;-76
2021/06/19 06:05:37;;;;;;;8.60;4.72;;;;;;;24.46;41.99;100723.78;4424503;32;20124;-76
2021/06/19 06:08:03;;;;;;;9.15;5.15;;;;;;;24.61;42.18;100727.00;4426880;32;20112;-77
2021/06/19 06:10:29;;;;;;;6.12;3.92;;;;;;;24.71;42.28;100725.41;4424152;32;20085;-76
2021/06/19 06:12:57;;;;;;;8.77;4.05;;;;;;;24.83;41.60;100729.75;4426429;32;20052;-75
2021/06/19 06:15:24;;;;;;;6.57;4.07;;;;;;;25.10;41.30;100740.19;4426080;32;20097;-75
2021/06/19 06:17:50;;;;;;;9.80;4.40;;;;;;;25.20;41.58;100737.72;4426893;32;20044;-75
2021/06/19 06:20:16;;;;;;;12.02;4.10;;;;;;;25.16;41.25;100735.16;4426915;32;20085;-76
2021/06/19 06:22:42;;;;;;;8.52;4.85;;;;;;;25.11;nan;100735.22;4426495;32;20037;-75
2021/06/19 06:25:08;;;;;;;8.57;4.25;;;;;;;25.18;40.96;100738.28;4427279;32;20616;-76
2021/06/19 06:27:34;;;;;;;9.90;4.45;;;;;;;25.38;40.68;100740.69;4425462;32;20099;-76
2021/06/19 06:30:00;;;;;;;7.15;3.95;;;;;;;24.90;41.47;100748.50;4426761;32;20049;-75
2021/06/19 06:32:26;;;;;;;10.15;4.82;;;;;;;24.86;41.16;100754.59;4426666;32;20021;-75
2021/06/19 06:34:52;;;;;;;8.95;4.30;;;;;;;24.69;42.11;100750.28;4426766;32;20141;-75
2021/06/19 06:37:18;;;;;;;11.05;4.07;;;;;;;24.70;41.96;100754.72;4430496;32;20085;-75
2021/06/19 06:39:43;;;;;;;7.07;4.47;;;;;;;24.82;42.14;100759.06;4430196;32;20470;-76
2021/06/19 06:42:10;;;;;;;7.90;4.05;;;;;;;24.87;41.75;100750.38;4426130;32;20512;-75
2021/06/19 06:44:36;;;;;;;8.32;4.37;;;;;;;24.79;41.92;100754.38;4429843;32;20090;-74
2021/06/19 06:47:03;;;;;;;7.90;4.18;;;;;;;25.08;41.20;100760.13;4425785;32;20042;-73
2021/06/19 06:49:30;;;;;;;7.70;3.83;;;;;;;25.32;41.19;100757.25;4425609;32;20037;-75
2021/06/19 06:51:56;;;;;;;8.80;3.22;;;;;;;25.56;39.76;100758.56;4422171;32;20082;-75
2021/06/19 06:54:22;;;;;;;9.20;4.00;;;;;;;25.76;39.05;100763.81;4428112;32;20099;-76
2021/06/19 06:56:48;;;;;;;7.72;3.92;;;;;;;25.76;39.05;100763.81;4430203;32;20472;-75
2021/06/19 06:59:13;;;;;;;7.20;4.07;;;;;;;25.85;38.84;100772.06;4428206;32;20073;-75
2021/06/19 07:01:39;;;;;;;7.43;3.08;;;;;;;25.60;39.33;100771.34;4428198;32;20425;-75
2021/06/19 07:04:04;;;;;;;6.35;3.60;;;;;;;25.67;39.04;100775.72;4427803;32;20573;-74
2021/06/19 07:06:30;;;;;;;9.10;3.30;;;;;;;25.59;39.64;100775.56;4428780;32;20377;-75
2021/06/19 07:08:56;;;;;;;10.63;3.10;;;;;;;26.02;39.25;100779.22;4423465;32;20502;-75
2021/06/19 07:11:22;;;;;;;7.72;3.03;;;;;;;26.23;38.95;100782.34;4425368;32;20158;-76
2021/06/19 07:13:48;;;;;;;7.07;3.00;;;;;;;26.20;38.25;100792.09;4426927;32;20430;-73
2021/06/19 07:16:13;;;;;;;7.25;2.90;;;;;;;26.62;37.77;100785.41;4426469;32;20095;-74
2021/06/19 07:18:39;;;;;;;10.23;3.30;;;;;;;26.58;37.57;100790.72;4425704;32;20198;-74
2021/06/19 07:21:05;;;;;;;6.20;3.08;;;;;;;26.54;37.62;100796.03;4426375;32;20148;-74
2021/06/19 07:23:31;;;;;;;5.75;2.87;;;;;;;26.47;37.20;100796.66;4427152;32;20077;-74
2021/06/19 07:25:57;;;;;;;9.73;3.45;;;;;;;26.43;37.34;100801.97;4429059;32;20106;-74
2021/06/19 07:28:24;;;;;;;7.68;3.17;;;;;;;26.60;37.36;100797.47;4430065;32;20098;-75
2021/06/19 07:30:50;;;;;;;6.62;3.10;;;;;;;26.67;37.38;100799.00;4424414;32;20388;-73
2021/06/19 07:33:15;;;;;;;6.80;2.65;;;;;;;26.69;37.11;100794.22;4429884;32;20025;-75
2021/06/19 07:35:42;;;;;;;7.78;3.17;;;;;;;26.83;37.08;100790.06;4428456;32;20081;-74
2021/06/19 07:38:07;;;;;;;6.00;3.17;;;;;;;26.77;37.67;100794.38;4429749;32;20300;-75
2021/06/19 07:40:33;;;;;;;8.48;3.80;;;;;;;26.61;37.43;100789.63;4427033;32;20042;-75
2021/06/19 07:43:00;;;;;;;6.55;2.80;;;;;;;26.68;37.09;100792.69;4424753;32;20089;-74
2021/06/19 07:45:26;;;;;;;5.93;3.05;;;;;;;26.64;37.37;100800.09;4427716;32;20120;-75
2021/06/19 07:47:52;;;;;;;10.85;3.47;;;;;;;26.53;37.64;100795.25;4425625;32;20115;-75
2021/06/19 07:50:18;;;;;;;7.32;2.90;;;;;;;26.69;36.87;100793.47;4422303;32;20034;-75
2021/06/19 07:52:44;;;;;;;8.00;3.10;;;;;;;27.49;36.23;100795.97;4428603;32;20049;-75
2021/06/19 07:55:10;;;;;;;10.68;3.15;;;;;;;26.59;37.57;100795.16;4425214;32;20052;-75
2021/06/19 07:57:36;;;;;;;7.72;3.22;;;;;;;26.65;37.90;100787.22;4428735;32;20030;-76
2021/06/19 08:00:05;;;;;;;9.30;3.10;;;;;;;26.38;37.90;100785.53;4419500;32;20091;-74
2021/06/19 08:02:30;;;;;;;7.18;3.17;;;;;;;26.58;37.22;100785.72;4424190;32;20085;-73
2021/06/19 08:04:56;;;;;;;6.57;3.80;;;;;;;26.57;36.87;100784.16;4430519;32;20053;-76
2021/06/19 08:07:22;;;;;;;4.12;2.87;;;;;;;27.05;35.53;100786.78;4429384;32;20663;-75
2021/06/19 08:09:48;;;;;;;6.30;3.10;;;;;;;27.35;35.86;100779.94;4427443;32;20099;-75
2021/06/19 08:12:14;;;;;;;6.55;3.22;;;;;;;27.72;35.32;100779.72;4424873;32;20041;-76
2021/06/19 08:14:40;;;;;;;7.35;3.45;;;;;;;28.07;35.15;100785.06;4426534;32;20034;-75
2021/06/19 08:17:15;;;;;;;7.15;3.33;;;;;;;28.14;34.65;100790.16;4427571;32;20456;-74
2021/06/19 08:19:44;;;;;;;7.22;3.00;;;;;;;28.28;34.46;100772.19;4424370;32;20513;-75
2021/06/19 08:22:11;;;;;;;9.13;3.00;;;;;;;28.55;33.98;100778.69;4424472;32;20099;-76
2021/06/19 08:24:37;;;;;;;7.07;2.90;;;;;;;28.80;34.04;100791.50;4429837;32;20406;-75
2021/06/19 08:27:03;;;;;;;4.82;3.00;;;;;;;28.53;33.85;100787.94;4426917;32;20424;-75
2021/06/19 08:29:29;;;;;;;6.20;2.62;;;;;;;27.81;34.65;100782.97;4422955;32;20082;-74
2021/06/19 08:31:55;;;;;;;7.87;2.70;;;;;;;27.41;35.41;100774.84;4421884;32;20037;-75
2021/06/19 08:34:21;;;;;;;5.62;2.37;;;;;;;27.87;35.31;100772.09;4427834;32;20092;-74
2021/06/19 08:36:46;;;;;;;11.02;3.50;;;;;;;28.26;34.66;100771.97;4426457;32;20147;-75
2021/06/19 08:39:12;;;;;;;2.97;2.03;;;;;;;28.45;34.37;100771.81;4426679;32;20068;-73
2021/06/19 08:41:38;;;;;;;5.60;2.65;;;;;;;28.42;34.62;100772.94;4425147;32;20115;-74
2021/06/19 08:44:04;;;;;;;6.22;2.00;;;;;;;28.89;33.39;100768.59;4424883;32;20445;-75
2021/06/19 08:46:30;;;;;;;6.20;2.33;;;;;;;29.37;32.59;100769.97;4427493;32;20426;-75
2021/06/19 08:48:57;;;;;;;6.45;2.30;;;;;;;29.48;32.39;100768.91;4422284;32;20078;-75
2021/06/19 08:51:25;;;;;;;9.10;2.45;;;;;;;29.63;32.67;100769.03;4420372;32;20049;-74
2021/06/19 08:53:51;;;;;;;9.82;2.50;;;;;;;29.37;32.86;100764.19;4423637;32;20037;-74
2021/06/19 08:56:21;;;;;;;5.75;2.45;;;;;;;29.41;32.59;100784.88;4426113;32;20416;-74
2021/06/19 08:58:46;;;;;;;8.18;2.40;;;;;;;29.51;31.99;100767.75;4426272;32;20073;-74
2021/06/19 09:01:13;;;;;;;7.72;2.55;;;;;;;29.56;31.78;100766.81;4426358;32;20090;-74
2021/06/19 09:03:39;;;;;;;4.93;2.22;;;;;;;29.48;32.33;100766.75;4426110;32;20053;-74
2021/06/19 09:06:25;;;;;;;5.30;2.37;;;;;;;29.10;32.95;100767.81;4427373;32;20064;-74
2021/06/19 09:11:42;;;;;;;11.23;2.62;;;;;;;29.07;33.01;100752.34;4435117;31;674160;-76
2021/06/19 09:19:34;;;;;;;4.37;2.30;;;;;;;28.73;33.77;100740.06;4405380;32;1372844;-75
2021/06/19 09:22:12;;;;;;;6.22;2.90;;;;;;;28.73;33.77;100740.06;4433979;32;20049;-75
2021/06/19 09:38:05;;;;;;;7.15;2.62;;;;;;;29.45;32.30;100735.25;4434694;31;667657;-76
2021/06/19 09:40:38;;;;;;;6.43;2.55;;;;;;;29.45;32.30;100735.25;4445508;32;20056;-76
2021/06/19 09:45:57;;;;;;;4.90;2.42;;;;;;;29.94;31.16;100727.22;4440176;31;678145;-75
2021/06/19 09:48:31;;;;;;;6.93;2.17;;;;;;;29.94;31.16;100727.22;4454194;32;20112;-73
2021/06/19 09:51:17;;;;;;;4.70;1.65;;;;;;;29.80;31.09;100719.97;4452666;32;20426;-74
2021/06/19 09:53:48;;;;;;;3.25;2.00;;;;;;;29.67;30.83;100717.22;4452877;32;20077;-74
2021/06/19 09:56:16;;;;;;;4.57;1.95;;;;;;;29.78;30.29;100723.44;4451074;32;20038;-76
2021/06/19 10:01:32;;;;;;;10.32;6.78;;;;;;;31.01;29.76;100723.97;4427668;31;667816;-74
2021/06/19 10:03:58;;;;;;;3.97;1.80;;;;;;;31.01;29.76;100723.97;4439969;32;20080;-74
2021/06/19 10:06:25;;;;;;;4.45;1.95;;;;;;;31.14;28.93;100715.81;4436888;32;20069;-75
2021/06/19 10:08:53;;;;;;;4.60;2.17;;;;;;;30.83;29.04;100729.56;4437013;32;20113;-76
2021/06/19 10:11:21;;;;;;;4.95;2.42;;;;;;;30.54;29.67;100721.56;4438834;32;20427;-74
2021/06/19 10:13:47;;;;;;;6.75;2.30;;;;;;;30.39;29.27;100722.34;4438918;32;20088;-74
2021/06/19 10:16:15;;;;;;;4.97;2.30;;;;;;;30.48;29.45;100726.78;4441231;32;20065;-74
2021/06/19 10:18:43;;;;;;;3.28;1.80;;;;;;;30.37;29.38;100736.62;4436014;32;20077;-75
2021/06/19 10:21:10;;;;;;;3.87;1.98;;;;;;;30.68;29.14;100737.47;4439757;32;20104;-75
2021/06/19 10:23:36;;;;;;;5.30;1.90;;;;;;;30.90;28.50;100736.75;4433310;32;20053;-74
2021/06/19 10:26:03;;;;;;;3.90;1.70;;;;;;;31.47;27.80;100737.84;4438939;32;20164;-74
2021/06/19 10:28:31;;;;;;;4.60;2.15;;;;;;;32.50;27.00;100748.94;4439400;32;21271;-75
2021/06/19 10:30:57;;;;;;;6.65;1.75;;;;;;;32.82;25.69;100735.69;4438632;32;20033;-74
2021/06/19 10:33:28;;;;;;;6.43;1.40;;;;;;;32.61;25.56;100738.94;4434853;32;20107;-75
2021/06/19 10:35:56;;;;;;;4.68;1.50;;;;;;;33.06;25.58;100735.69;4438407;32;20104;-74
2021/06/19 10:38:23;;;;;;;5.53;2.15;;;;;;;32.95;25.93;100736.19;4439680;32;20060;-74
2021/06/19 10:41:03;;;;;;;5.40;2.03;;;;;;;32.74;25.57;100732.81;4436014;32;20033;-74
2021/06/19 10:43:31;;;;;;;8.13;2.22;;;;;;;33.10;24.88;100736.03;4435913;32;20130;-74
2021/06/19 10:46:36;;;;;;;6.07;3.10;;;;;;;32.60;25.60;100722.81;4439993;32;20099;-73
2021/06/19 10:52:21;;;;;;;4.15;2.17;;;;;;;34.55;23.85;100722.06;4429155;32;663211;-74
2021/06/19 10:57:48;;;;;;;8.75;4.40;;;;;;;33.40;23.09;100732.84;4446387;31;665386;-74
2021/06/19 11:03:14;;;;;;;4.85;3.10;;;;;;;32.05;25.16;100730.88;4423779;32;730362;-73
2021/06/19 11:08:16;;;;;;;6.78;3.53;;;;;;;31.42;26.56;100743.88;4438222;31;674230;-72
2021/06/19 11:19:08;;;;;;;4.97;2.00;;;;;;;30.49;27.79;100739.94;4436169;32;666523;-73
2021/06/19 11:21:34;;;;;;;4.82;1.95;;;;;;;29.95;28.21;100737.47;4453888;32;20045;-74
2021/06/19 11:32:32;;;;;;;3.60;1.90;;;;;;;31.76;27.08;100718.78;4433630;31;670402;-74
2021/06/19 11:37:57;;;;;;;8.60;2.30;;;;;;;31.67;26.84;100722.28;4432807;31;669398;-72
2021/06/19 11:40:27;;;;;;;4.80;2.60;;;;;;;31.67;26.84;100722.28;4441945;32;20381;-74
2021/06/19 11:42:53;;;;;;;5.12;2.90;;;;;;;31.62;26.56;100713.75;4441516;32;20052;-72
2021/06/19 11:45:19;;;;;;;5.95;2.42;;;;;;;31.81;26.41;100711.19;4442517;32;20080;-76
2021/06/19 11:47:47;;;;;;;8.20;2.50;;;;;;;31.91;26.06;100710.00;4444572;32;20083;-73
2021/06/19 11:50:14;;;;;;;3.42;2.03;;;;;;;32.41;25.14;100717.53;4442090;32;21209;-74
2021/06/19 11:52:40;;;;;;;5.78;4.28;;;;;;;32.42;24.78;100718.28;4441261;32;20559;-73
2021/06/19 11:55:06;;;;;;;4.43;2.05;;;;;;;32.45;24.76;100722.91;4440860;32;20046;-74
2021/06/19 11:57:31;;;;;;;7.78;2.30;;;;;;;33.04;24.20;100717.25;4440959;32;20041;-75
2021/06/19 12:00:09;;;;;;;4.85;1.80;;;;;;;32.88;23.85;100719.50;4440338;32;20122;-75
2021/06/19 12:02:36;;;;;;;6.95;2.15;;;;;;;33.11;23.86;100713.47;4437487;32;20057;-76
2021/06/19 12:05:11;;;;;;;6.07;2.67;;;;;;;33.13;23.78;100705.66;4436609;32;20038;-74
2021/06/19 12:07:37;;;;;;;4.95;2.42;;;;;;;33.41;23.23;100695.69;4432171;32;20362;-75
2021/06/19 12:10:21;;;;;;;4.43;2.35;;;;;;;33.00;22.93;100700.16;4429377;32;20037;-76
2021/06/19 12:12:56;;;;;;;4.35;2.50;;;;;;;33.05;23.28;100684.56;4437506;32;20029;-76
2021/06/19 12:15:22;;;;;;;5.62;2.50;;;;;;;33.34;23.15;100691.44;4437218;32;20129;-73
2021/06/19 12:17:48;;;;;;;10.15;2.58;;;;;;;33.48;22.64;100681.03;4434373;32;20046;-73
2021/06/19 12:20:22;;;;;;;6.40;2.50;;;;;;;33.11;23.49;100685.09;4433424;32;20071;-72
2021/06/19 12:22:49;;;;;;;9.23;2.70;;;;;;;33.35;22.87;100675.50;4434920;32;20559;-72
2021/06/19 12:25:35;;;;;;;11.38;5.22;;;;;;;33.34;22.67;100690.69;4438702;32;20085;-74